createdAt,value
2022-07-29T00:03:28.175Z,69.20
2022-07-29T00:08:26.398Z,69.00
2022-07-29T00:13:31.800Z,69.20
2022-07-29T00:18:32.518Z,69.60
2022-07-29T00:23:32.665Z,69.60
2022-07-29T00:28:34.712Z,69.30
2022-07-29T00:33:34.429Z,69.80
2022-07-29T00:38:32.658Z,69.20
2022-07-29T00:43:30.924Z,69.50
2022-07-29T00:48:29.190Z,69.80
2022-07-29T00:53:29.572Z,70.20
2022-07-29T00:58:29.244Z,70.10
2022-07-29T01:03:27.612Z,69.90
2022-07-29T01:08:26.057Z,70.30
2022-07-29T01:13:25.937Z,70.60
2022-07-29T01:18:34.168Z,70.40
2022-07-29T01:23:50.104Z,70.30
2022-07-29T01:29:00.782Z,70.70
2022-07-29T01:34:10.863Z,71.00
2022-07-29T01:39:13.284Z,70.80
2022-07-29T01:44:19.122Z,71.30
2022-07-29T01:49:22.312Z,71.50
2022-07-29T01:54:25.031Z,72.00
2022-07-29T01:59:26.876Z,72.30
2022-07-29T02:04:29.181Z,72.20
2022-07-29T02:09:28.932Z,72.60
2022-07-29T02:14:31.254Z,73.00
2022-07-29T02:19:31.628Z,73.00
2022-07-29T02:24:32.020Z,72.90
2022-07-29T02:29:33.315Z,73.20
2022-07-29T02:34:32.297Z,73.20
2022-07-29T02:39:31.493Z,73.10
2022-07-29T02:44:34.538Z,73.40
2022-07-29T02:49:38.643Z,73.30
2022-07-29T02:54:41.595Z,73.50
2022-07-29T02:59:44.321Z,74.20
2022-07-29T03:04:45.391Z,74.40
2022-07-29T03:09:44.836Z,74.40
2022-07-29T03:14:45.626Z,74.60
2022-07-29T03:19:44.449Z,74.80
2022-07-29T03:24:42.781Z,75.20
2022-07-29T03:29:40.995Z,75.10
2022-07-29T03:34:49.125Z,74.70
2022-07-29T03:39:49.414Z,74.70
2022-07-29T03:44:50.961Z,74.80
2022-07-29T03:49:52.481Z,75.00
2022-07-29T03:54:50.996Z,75.20
2022-07-29T03:59:49.934Z,75.30
2022-07-29T04:04:48.208Z,75.50
2022-07-29T04:09:47.759Z,75.40
2022-07-29T04:14:46.006Z,75.90
2022-07-29T04:19:44.221Z,76.60
2022-07-29T04:24:44.498Z,76.40
2022-07-29T04:29:56.999Z,76.60
2022-07-29T04:34:55.949Z,76.70
2022-07-29T04:39:54.134Z,76.90
2022-07-29T04:44:53.687Z,77.30
2022-07-29T04:49:51.942Z,76.30
2022-07-29T04:54:50.456Z,76.30
2022-07-29T04:59:48.941Z,76.60
2022-07-29T05:04:48.478Z,77.10
2022-07-29T05:09:46.683Z,77.10
2022-07-29T05:14:44.942Z,77.50
2022-07-29T05:19:43.213Z,77.50
2022-07-29T05:24:42.882Z,77.70
2022-07-29T05:29:44.588Z,77.80
2022-07-29T05:34:51.252Z,78.20
2022-07-29T05:39:56.783Z,78.20
2022-07-29T05:44:55.733Z,78.00
2022-07-29T05:49:54.027Z,77.90
2022-07-29T05:54:53.585Z,77.70
2022-07-29T05:59:52.832Z,78.20
2022-07-29T06:04:51.376Z,78.40
2022-07-29T06:09:49.668Z,78.10
2022-07-29T06:14:53.938Z,79.20
2022-07-29T06:19:52.906Z,79.00
2022-07-29T06:24:51.206Z,78.20
2022-07-29T06:29:50.939Z,78.60
2022-07-29T06:34:49.268Z,78.20
2022-07-29T06:39:47.466Z,79.20
2022-07-29T06:44:45.691Z,78.80
2022-07-29T06:49:45.233Z,80.10
2022-07-29T06:54:48.925Z,80.70
2022-07-29T06:59:47.146Z,79.20
2022-07-29T07:04:46.752Z,80.10
2022-07-29T07:09:47.519Z,80.10
2022-07-29T07:14:45.701Z,78.70
2022-07-29T07:19:43.853Z,79.80
2022-07-29T07:24:43.435Z,80.20
2022-07-29T07:29:44.433Z,79.40
2022-07-29T07:34:42.709Z,79.00
2022-07-29T07:39:41.006Z,79.90
2022-07-29T07:45:03.753Z,80.10
2022-07-29T07:49:59.091Z,80.30
2022-07-29T07:54:57.352Z,79.10
2022-07-29T07:59:56.991Z,78.40
2022-07-29T08:04:56.022Z,77.90
2022-07-29T08:09:54.333Z,78.40
2022-07-29T08:14:52.521Z,79.20
2022-07-29T08:19:52.171Z,79.30
2022-07-29T08:24:55.716Z,77.80
2022-07-29T08:29:54.011Z,76.50
2022-07-29T08:34:53.708Z,74.70
2022-07-29T08:39:51.989Z,74.50
2022-07-29T08:44:51.581Z,76.30
2022-07-29T08:49:49.820Z,75.10
2022-07-29T08:54:50.615Z,74.60
2022-07-29T08:59:51.943Z,74.50
2022-07-29T09:04:52.022Z,74.50
2022-07-29T09:09:51.756Z,71.90
2022-07-29T09:14:49.970Z,72.30
2022-07-29T09:19:48.231Z,68.70
2022-07-29T09:24:48.316Z,68.60
2022-07-29T09:29:47.934Z,68.70
2022-07-29T09:34:46.240Z,67.40
2022-07-29T09:39:46.693Z,64.80
2022-07-29T09:44:49.532Z,64.20
2022-07-29T09:49:56.149Z,64.70
2022-07-29T09:54:55.011Z,63.60
2022-07-29T10:00:00.748Z,61.90
2022-07-29T10:04:59.443Z,63.60
2022-07-29T10:09:59.582Z,60.20
2022-07-29T10:14:59.294Z,60.10
2022-07-29T10:19:58.487Z,58.10
2022-07-29T10:24:57.243Z,58.70
2022-07-29T10:29:56.103Z,57.50
2022-07-29T10:35:30.054Z,57.20
2022-07-29T10:40:57.283Z,56.80
2022-07-29T10:45:59.284Z,56.90
2022-07-29T10:51:01.201Z,56.80
2022-07-29T10:55:59.421Z,55.60
2022-07-29T11:00:58.106Z,55.50
2022-07-29T11:05:59.500Z,54.00
2022-07-29T11:11:44.102Z,53.10
2022-07-29T11:17:07.197Z,54.20
2022-07-29T11:22:10.719Z,53.60
2022-07-29T11:27:14.121Z,54.00
2022-07-29T11:32:23.169Z,53.10
2022-07-29T11:37:27.664Z,53.30
2022-07-29T11:42:46.967Z,52.90
2022-07-29T11:47:54.528Z,53.00
2022-07-29T11:52:54.790Z,52.30
2022-07-29T11:58:03.833Z,52.50
2022-07-29T12:03:05.050Z,52.60
2022-07-29T12:08:14.763Z,52.40
2022-07-29T12:13:13.590Z,53.10
2022-07-29T12:18:19.654Z,52.80
2022-07-29T12:23:23.712Z,53.50
2022-07-29T12:28:28.185Z,52.60
2022-07-29T12:33:28.899Z,52.60
2022-07-29T12:38:29.033Z,52.20
2022-07-29T12:43:27.594Z,52.90
2022-07-29T12:48:35.920Z,53.20
2022-07-29T12:53:36.122Z,51.20
2022-07-29T12:58:37.225Z,50.70
2022-07-29T13:03:57.153Z,51.00
2022-07-29T13:09:03.922Z,50.60
2022-07-29T13:14:05.919Z,49.60
2022-07-29T13:19:10.630Z,48.20
2022-07-29T13:24:11.264Z,47.90
2022-07-29T13:29:09.469Z,48.40
2022-07-29T13:34:07.640Z,49.20
2022-07-29T13:39:05.993Z,48.10
2022-07-29T13:44:05.707Z,47.90
2022-07-29T13:49:03.929Z,47.40
2022-07-29T13:54:02.127Z,46.90
2022-07-29T13:59:01.108Z,48.10
2022-07-29T14:04:00.730Z,48.40
2022-07-29T14:08:58.972Z,47.20
2022-07-29T14:13:57.142Z,45.90
2022-07-29T14:18:55.360Z,46.80
2022-07-29T14:23:55.578Z,47.70
2022-07-29T14:28:54.471Z,46.20
2022-07-29T14:33:52.724Z,46.50
2022-07-29T14:38:50.896Z,46.10
2022-07-29T14:43:50.463Z,46.50
2022-07-29T14:48:48.736Z,46.20
2022-07-29T14:53:47.086Z,48.10
2022-07-29T14:58:51.500Z,47.50
2022-07-29T15:03:51.667Z,49.00
2022-07-29T15:08:49.908Z,47.00
2022-07-29T15:13:48.126Z,45.60
2022-07-29T15:18:46.318Z,46.80
2022-07-29T15:23:45.821Z,46.90
2022-07-29T15:28:44.107Z,46.60
2022-07-29T15:33:42.331Z,45.70
2022-07-29T15:38:41.743Z,46.10
2022-07-29T15:43:45.480Z,46.50
2022-07-29T15:48:43.766Z,46.20
2022-07-29T15:53:41.996Z,46.50
2022-07-29T15:58:41.947Z,47.00
2022-07-29T16:03:45.734Z,46.20
2022-07-29T16:08:44.456Z,46.60
2022-07-29T16:13:43.970Z,45.50
2022-07-29T16:18:42.159Z,47.90
2022-07-29T16:23:41.020Z,53.00
2022-07-29T16:28:39.288Z,53.80
2022-07-29T16:33:54.176Z,54.20
2022-07-29T16:38:53.964Z,54.90
2022-07-29T16:43:52.122Z,56.20
2022-07-29T16:48:51.824Z,57.30
2022-07-29T16:53:50.510Z,57.80
2022-07-29T16:58:48.867Z,58.00
2022-07-29T17:04:04.686Z,58.20
2022-07-29T17:09:05.042Z,57.70
2022-07-29T17:14:03.259Z,58.20
2022-07-29T17:19:07.380Z,58.60
2022-07-29T17:24:07.779Z,59.40
2022-07-29T17:29:06.053Z,60.50
2022-07-29T17:34:06.502Z,61.00
2022-07-29T17:39:08.050Z,61.20
2022-07-29T17:44:06.289Z,61.40
2022-07-29T17:49:04.704Z,61.80
2022-07-29T17:54:03.044Z,62.10
2022-07-29T17:59:06.521Z,63.00
2022-07-29T18:04:04.893Z,63.90
2022-07-29T18:09:03.225Z,64.40
2022-07-29T18:14:02.848Z,65.20
2022-07-29T18:19:01.111Z,65.10
2022-07-29T18:24:00.869Z,66.10
2022-07-29T18:28:59.074Z,66.40
2022-07-29T18:34:00.198Z,67.50
2022-07-29T18:38:58.491Z,67.30
2022-07-29T18:43:56.765Z,67.60
2022-07-29T18:48:57.206Z,68.50
2022-07-29T18:53:56.956Z,68.80
2022-07-29T18:58:55.135Z,69.20
2022-07-29T19:03:53.283Z,69.40
2022-07-29T19:08:52.347Z,69.90
2022-07-29T19:13:51.921Z,69.80
2022-07-29T19:18:50.156Z,70.20
2022-07-29T19:24:00.142Z,70.30
2022-07-29T19:29:06.180Z,71.00
2022-07-29T19:34:04.908Z,72.10
2022-07-29T19:39:03.467Z,72.20
2022-07-29T19:44:01.675Z,72.80
2022-07-29T19:49:01.559Z,72.80
2022-07-29T19:54:00.131Z,72.70
2022-07-29T19:58:58.551Z,72.80
2022-07-29T20:03:56.803Z,73.30
2022-07-29T20:08:58.703Z,73.60
2022-07-29T20:13:57.239Z,73.60
2022-07-29T20:18:55.428Z,73.60
2022-07-29T20:23:53.717Z,73.80
2022-07-29T20:28:53.382Z,74.30
2022-07-29T20:33:51.848Z,74.50
2022-07-29T20:38:50.092Z,74.10
2022-07-29T20:43:49.698Z,74.00
2022-07-29T20:48:49.260Z,74.60
2022-07-29T20:53:48.075Z,74.60
2022-07-29T20:58:46.245Z,74.70
2022-07-29T21:03:44.625Z,74.50
2022-07-29T21:08:44.599Z,74.90
2022-07-29T21:13:45.471Z,75.20
2022-07-29T21:18:46.287Z,75.60
2022-07-29T21:23:46.839Z,76.00
2022-07-29T21:28:46.189Z,76.70
2022-07-29T21:33:48.613Z,79.00
2022-07-29T21:38:48.167Z,78.60
2022-07-29T21:43:46.326Z,78.90
2022-07-29T21:48:44.812Z,78.30
2022-07-29T21:53:43.060Z,78.20
2022-07-29T21:58:43.864Z,78.10
2022-07-29T22:03:42.041Z,77.70
2022-07-29T22:08:41.798Z,78.10
2022-07-29T22:13:39.975Z,78.50
2022-07-29T22:18:39.550Z,78.90
2022-07-29T22:23:37.690Z,78.80
2022-07-29T22:28:36.007Z,79.60
2022-07-29T22:33:34.224Z,78.60
2022-07-29T22:38:33.885Z,78.80
2022-07-29T22:43:32.219Z,78.80
2022-07-29T22:48:30.552Z,78.80
2022-07-29T22:53:28.867Z,79.10
2022-07-29T22:58:28.786Z,79.00
2022-07-29T23:03:26.995Z,78.90
2022-07-29T23:08:25.235Z,78.50
2022-07-29T23:13:23.508Z,78.20
2022-07-29T23:18:23.054Z,78.20
2022-07-29T23:23:21.350Z,78.20
2022-07-29T23:28:19.533Z,78.70
2022-07-29T23:33:17.784Z,78.00
2022-07-29T23:38:17.292Z,78.00
2022-07-29T23:43:15.482Z,77.70
2022-07-29T23:48:14.585Z,77.60
2022-07-29T23:53:13.135Z,77.00
2022-07-29T23:58:12.649Z,77.60
